Time;durP1;ratioP1;P1;durP2;ratioP2;P2;SDS_P1;SDS_P2;PMS_P1;PMS_P2;Temp;Humidity;BMP_temperature;BMP_pressure;BME280_temperature;BME280_humidity;BME280_pressure;Samples;Min_cycle;Max_cycle;Signal;HPM_P1;HPM_P2
2023/07/11 00:01:23;;;;;;;3.30;1.50;;;;;;;23.79;38.12;100358.73;107829;1290;21990;-69
2023/07/11 00:03:49;;;;;;;6.50;1.50;;;;;;;23.74;38.34;100361.39;107848;1286;21990;-60
2023/07/11 00:06:17;;;;;;;2.10;1.40;;;;;;;23.65;38.54;100363.95;107985;1284;21996;-68
2023/07/11 00:08:43;;;;;;;4.10;1.30;;;;;;;23.57;38.54;100369.73;108090;1288;21990;-69
2023/07/11 00:11:09;;;;;;;5.20;1.60;;;;;;;23.52;38.53;100377.34;108005;1288;21989;-68
2023/07/11 00:13:35;;;;;;;2.40;1.50;;;;;;;23.51;38.61;100380.15;108093;1288;22043;-69
2023/07/11 00:16:06;;;;;;;3.30;1.20;;;;;;;23.53;38.61;100374.83;107840;1286;299864;-69
2023/07/11 00:18:33;;;;;;;5.50;1.30;;;;;;;23.56;38.53;100380.64;108017;1286;23046;-60
2023/07/11 00:20:58;;;;;;;3.80;1.80;;;;;;;23.63;38.60;100378.59;107930;1283;22077;-60
2023/07/11 00:23:24;;;;;;;3.60;1.30;;;;;;;23.70;38.68;100372.81;107822;1289;22033;-62
2023/07/11 00:25:50;;;;;;;3.90;1.50;;;;;;;23.73;38.72;100371.46;107792;1289;21994;-69
2023/07/11 00:28:15;;;;;;;1.90;1.30;;;;;;;23.77;38.65;100364.61;107821;1279;21989;-62
2023/07/11 00:30:42;;;;;;;2.60;1.40;;;;;;;23.80;38.44;100364.06;107731;1289;22016;-60
2023/07/11 00:33:08;;;;;;;2.60;1.40;;;;;;;23.81;38.38;100361.14;107982;1288;22032;-62
2023/07/11 00:35:36;;;;;;;2.60;1.40;;;;;;;23.81;38.47;100355.38;108109;1287;22011;-68
2023/07/11 00:38:01;;;;;;;4.60;1.60;;;;;;;23.76;38.65;100349.42;108035;1288;21994;-68
2023/07/11 00:40:27;;;;;;;2.10;1.20;;;;;;;23.72;38.66;100345.77;108034;1288;21996;-60
2023/07/11 00:42:53;;;;;;;2.10;1.40;;;;;;;23.68;38.86;100342.77;108033;1288;21992;-59
2023/07/11 00:45:59;;;;;;;2.40;1.40;;;;;;;23.65;38.70;100338.88;108051;1280;21992;-67
2023/07/11 00:48:25;;;;;;;2.60;1.20;;;;;;;23.57;38.82;100338.91;108041;1288;22047;-68
2023/07/11 00:50:51;;;;;;;3.40;1.30;;;;;;;23.45;39.04;100338.41;108062;1288;21987;-68
2023/07/11 00:53:17;;;;;;;3.00;1.60;;;;;;;23.35;39.02;100338.71;107879;1281;22006;-67
2023/07/11 00:55:42;;;;;;;2.70;1.20;;;;;;;23.27;39.22;100336.23;107807;1288;23740;-67
2023/07/11 00:58:08;;;;;;;7.60;2.30;;;;;;;23.19;39.25;100331.73;107823;1288;21992;-60
2023/07/11 01:00:34;;;;;;;3.00;1.70;;;;;;;23.13;39.30;100331.73;107875;1288;21990;-66
2023/07/11 01:02:59;;;;;;;2.30;1.40;;;;;;;23.03;39.59;100334.49;107796;1286;21989;-67
2023/07/11 01:05:25;;;;;;;3.30;1.20;;;;;;;22.92;39.40;100335.95;107767;1283;21997;-60
2023/07/11 01:07:51;;;;;;;3.30;1.50;;;;;;;22.79;39.72;100337.31;107794;1286;23029;-68
2023/07/11 01:10:17;;;;;;;3.40;1.50;;;;;;;22.65;40.01;100339.30;107877;1289;21995;-68
2023/07/11 01:12:44;;;;;;;2.00;1.40;;;;;;;22.52;40.15;100333.11;108067;1289;21962;-60
2023/07/11 01:15:10;;;;;;;3.00;1.40;;;;;;;22.49;40.27;100333.31;107870;1283;23068;-68
2023/07/11 01:17:36;;;;;;;3.30;1.80;;;;;;;22.51;40.25;100332.85;107901;1289;21997;-60
2023/07/11 01:20:05;;;;;;;2.20;1.30;;;;;;;22.57;40.39;100334.04;107711;1289;22003;-59
2023/07/11 01:22:31;;;;;;;2.70;1.50;;;;;;;22.64;40.09;100329.86;108088;1283;22000;-68
2023/07/11 01:24:59;;;;;;;4.00;1.60;;;;;;;22.67;40.10;100327.90;108066;1283;21985;-68
2023/07/11 01:27:24;;;;;;;2.10;1.30;;;;;;;22.57;40.08;100324.23;108112;1288;22000;-59
2023/07/11 01:29:50;;;;;;;2.10;1.20;;;;;;;22.42;40.10;100326.02;108057;1288;21993;-59
2023/07/11 01:32:16;;;;;;;4.00;1.30;;;;;;;22.32;40.30;100322.35;107833;1288;21990;-67
2023/07/11 01:34:42;;;;;;;3.40;1.60;;;;;;;22.24;40.45;100327.14;108058;1288;21988;-68
2023/07/11 01:37:08;;;;;;;8.00;1.90;;;;;;;22.21;40.67;100331.99;108076;1288;21991;-61
2023/07/11 03:46:35;;;;;;;6.80;2.30;;;;;;;19.36;67.11;100387.85;107337;1292;550262;-65
2023/07/11 03:49:01;;;;;;;12.30;3.50;;;;;;;22.23;52.37;100380.27;107687;1293;21996;-59
2023/07/11 03:51:27;;;;;;;9.50;1.70;;;;;;;22.74;50.38;100371.98;107474;1295;22030;-58
2023/07/11 03:53:52;;;;;;;6.30;1.80;;;;;;;23.05;49.73;100373.74;107467;1295;22007;-59
2023/07/11 03:56:18;;;;;;;8.90;2.20;;;;;;;23.28;48.98;100373.94;107596;1295;22010;-64
2023/07/11 03:58:44;;;;;;;5.80;1.90;;;;;;;23.48;48.21;100374.25;107540;1290;142858;-65
2023/07/11 04:01:10;;;;;;;6.30;1.50;;;;;;;23.68;47.56;100371.33;107833;1290;22001;-64
2023/07/11 04:03:36;;;;;;;5.30;1.70;;;;;;;23.87;47.20;100373.95;107816;1292;21992;-64
2023/07/11 04:06:02;;;;;;;5.50;1.50;;;;;;;24.04;47.05;100370.32;107780;1288;21990;-65
2023/07/11 04:08:29;;;;;;;8.40;1.90;;;;;;;24.20;46.56;100368.67;107839;1287;22031;-65
2023/07/11 04:10:58;;;;;;;4.80;1.60;;;;;;;24.35;46.39;100368.16;107781;1293;22003;-64
2023/07/11 04:13:24;;;;;;;5.40;1.60;;;;;;;24.50;46.21;100366.21;107767;1294;22934;-65
2023/07/11 04:15:50;;;;;;;4.00;1.70;;;;;;;24.66;45.79;100365.27;107873;1290;22004;-64
2023/07/11 04:18:15;;;;;;;12.20;2.30;;;;;;;24.84;45.46;100366.36;107784;1293;22003;-64
2023/07/11 04:20:41;;;;;;;9.40;2.40;;;;;;;25.03;45.31;100363.55;107766;1287;21995;-64
2023/07/11 04:23:07;;;;;;;6.90;2.30;;;;;;;25.22;45.03;100363.37;107804;1288;21999;-64
2023/07/11 04:25:33;;;;;;;5.60;2.80;;;;;;;25.42;44.78;100365.54;107917;1292;21997;-58
2023/07/11 04:27:59;;;;;;;4.60;2.00;;;;;;;25.58;44.48;100366.52;107829;1292;23615;-64
2023/07/11 04:30:25;;;;;;;2.80;1.60;;;;;;;25.74;44.17;100362.39;107765;1292;21990;-58
2023/07/11 04:32:51;;;;;;;3.40;1.90;;;;;;;25.90;43.54;100358.11;107780;1292;22001;-64
2023/07/11 04:35:17;;;;;;;6.00;1.60;;;;;;;26.04;43.22;100362.27;107766;1284;21995;-58
2023/07/11 04:37:43;;;;;;;6.50;2.00;;;;;;;26.14;42.81;100362.79;107956;1290;21997;-58
2023/07/11 04:40:10;;;;;;;4.50;2.20;;;;;;;26.26;42.61;100364.23;107891;1291;21988;-64
2023/07/11 04:42:35;;;;;;;3.40;1.70;;;;;;;26.37;42.35;100364.19;107918;1292;23088;-64
2023/07/11 04:45:01;;;;;;;4.30;2.00;;;;;;;26.48;42.17;100363.03;108065;1291;21992;-58
2023/07/11 04:47:27;;;;;;;7.60;2.00;;;;;;;26.61;42.00;100360.54;107811;1290;22042;-58
2023/07/11 04:49:56;;;;;;;5.80;1.90;;;;;;;26.75;41.86;100360.33;107840;1292;21996;-64
2023/07/11 04:52:22;;;;;;;3.20;1.70;;;;;;;26.86;41.70;100361.25;107886;1290;21990;-65
2023/07/11 04:54:48;;;;;;;4.90;1.70;;;;;;;26.94;41.41;100363.89;107745;1290;21997;-63
2023/07/11 04:57:13;;;;;;;3.50;1.80;;;;;;;27.03;41.31;100364.95;107817;1284;21992;-65
2023/07/11 04:59:40;;;;;;;4.70;2.20;;;;;;;27.12;40.97;100365.09;107788;1290;21992;-64
2023/07/11 05:02:06;;;;;;;5.70;1.90;;;;;;;27.23;40.91;100363.51;107829;1281;22105;-61
2023/07/11 05:04:31;;;;;;;2.60;1.40;;;;;;;27.38;40.89;100363.17;107822;1287;22031;-65
2023/07/11 05:07:00;;;;;;;4.00;2.00;;;;;;;27.55;40.98;100359.26;107830;1287;21997;-60
2023/07/11 05:09:29;;;;;;;4.00;1.90;;;;;;;27.75;40.87;100358.62;107784;1291;21992;-64
2023/07/11 05:11:55;;;;;;;3.40;1.80;;;;;;;27.95;40.70;100357.67;107828;1291;22001;-61
2023/07/11 05:14:24;;;;;;;5.10;3.00;;;;;;;28.13;40.34;100357.71;107804;1291;23756;-65
2023/07/11 05:16:50;;;;;;;5.50;2.30;;;;;;;28.29;40.19;100357.86;107827;1284;21990;-65
2023/07/11 05:19:16;;;;;;;5.40;1.80;;;;;;;28.25;39.99;100356.20;107751;1290;21994;-66
2023/07/11 05:21:42;;;;;;;4.00;2.10;;;;;;;28.40;39.84;100356.86;107789;1284;21989;-60
2023/07/11 05:24:08;;;;;;;5.00;2.10;;;;;;;28.56;39.59;100357.81;107887;1284;21979;-60
2023/07/11 05:26:34;;;;;;;5.00;1.90;;;;;;;28.64;39.34;100355.45;107833;1280;21992;-65
2023/07/11 05:29:01;;;;;;;5.40;2.10;;;;;;;28.80;39.10;100356.29;107809;1290;21992;-60
2023/07/11 05:31:28;;;;;;;5.20;2.10;;;;;;;28.95;38.90;100355.31;107901;1291;21995;-61
2023/07/11 05:33:54;;;;;;;6.00;1.50;;;;;;;29.10;38.70;100356.10;107878;1285;21988;-60
2023/07/11 05:36:32;;;;;;;4.50;2.00;;;;;;;29.23;38.69;100357.77;107870;1287;21955;-65
2023/07/11 05:39:03;;;;;;;5.40;2.20;;;;;;;29.40;38.45;100357.36;107885;1291;21979;-60
2023/07/11 05:41:29;;;;;;;8.30;2.10;;;;;;;29.56;38.31;100353.60;107849;1284;21994;-60
2023/07/11 05:43:55;;;;;;;5.20;2.00;;;;;;;29.65;38.13;100359.44;107840;1284;21988;-60
2023/07/11 05:46:22;;;;;;;7.80;2.40;;;;;;;29.75;38.01;100359.95;107833;1292;21990;-64
2023/07/11 05:48:48;;;;;;;6.10;2.10;;;;;;;29.91;37.73;100355.77;107929;1287;21991;-60
2023/07/11 05:51:15;;;;;;;8.70;2.20;;;;;;;30.09;37.64;100358.75;107922;1291;21983;-61
2023/07/11 05:53:41;;;;;;;3.30;1.80;;;;;;;30.24;37.46;100360.41;107978;1290;22002;-63
2023/07/11 05:56:08;;;;;;;2.70;1.70;;;;;;;30.39;37.24;100358.62;107934;1290;23742;-64
2023/07/11 05:58:34;;;;;;;5.60;2.10;;;;;;;30.51;37.06;100352.56;107856;1284;21994;-60
2023/07/11 06:00:59;;;;;;;3.60;1.70;;;;;;;30.62;36.98;100354.94;107912;1289;21964;-66
2023/07/11 06:03:27;;;;;;;4.10;2.20;;;;;;;30.78;36.91;100357.06;107958;1291;22027;-60
2023/07/11 06:05:53;;;;;;;9.50;2.20;;;;;;;30.92;36.72;100351.91;107910;1291;21996;-64
2023/07/11 06:08:19;;;;;;;7.30;2.10;;;;;;;31.03;36.31;100351.20;107887;1281;22464;-60
2023/07/11 06:10:45;;;;;;;5.40;1.90;;;;;;;31.17;36.25;100348.20;107904;1284;23615;-65
2023/07/11 06:13:11;;;;;;;5.80;2.10;;;;;;;31.28;35.52;100346.92;107963;1291;21993;-60
2023/07/11 06:15:37;;;;;;;5.20;2.00;;;;;;;31.26;35.38;100345.63;107848;1291;21997;-64
2023/07/11 06:18:03;;;;;;;8.80;2.70;;;;;;;31.36;35.15;100346.14;107791;1290;22023;-65
2023/07/11 06:20:30;;;;;;;4.20;1.90;;;;;;;31.50;35.27;100343.27;107923;1284;21983;-65
2023/07/11 06:22:55;;;;;;;5.20;1.70;;;;;;;31.59;34.96;100344.71;108053;1292;21994;-61
2023/07/11 06:25:21;;;;;;;4.60;1.70;;;;;;;31.69;34.83;100342.77;107837;1290;21976;-60
2023/07/11 06:27:47;;;;;;;5.00;1.90;;;;;;;31.83;34.81;100339.21;107845;1291;21986;-61
2023/07/11 06:30:13;;;;;;;3.90;1.70;;;;;;;31.96;34.49;100339.31;107976;1291;22001;-65
2023/07/11 06:32:38;;;;;;;2.30;1.60;;;;;;;32.05;34.11;100336.71;107976;1292;21997;-60
2023/07/11 06:35:04;;;;;;;4.70;1.50;;;;;;;32.13;33.94;100334.11;107797;1291;21994;-60
2023/07/11 06:37:30;;;;;;;4.60;1.70;;;;;;;32.26;34.03;100329.15;107901;1291;21999;-65
2023/07/11 06:39:56;;;;;;;4.20;1.30;;;;;;;32.43;33.87;100328.61;107910;1291;21997;-61
2023/07/11 06:42:22;;;;;;;2.80;1.70;;;;;;;32.63;33.80;100325.20;107963;1284;21990;-65
2023/07/11 06:44:47;;;;;;;3.60;1.70;;;;;;;32.86;33.30;100321.03;107965;1291;21996;-65
2023/07/11 06:47:13;;;;;;;4.70;2.10;;;;;;;33.02;33.11;100319.77;107894;1290;21992;-65
2023/07/11 06:49:39;;;;;;;3.00;1.50;;;;;;;33.04;33.26;100316.16;107876;1291;21996;-60
2023/07/11 06:52:05;;;;;;;9.40;2.10;;;;;;;33.12;32.75;100319.33;107871;1291;21989;-62
2023/07/11 06:54:30;;;;;;;7.60;1.90;;;;;;;33.18;32.44;100320.05;107877;1291;22455;-65
2023/07/11 06:56:59;;;;;;;2.70;1.50;;;;;;;33.35;32.47;100316.02;107871;1285;21994;-65
2023/07/11 06:59:26;;;;;;;4.20;1.80;;;;;;;33.60;32.05;100316.61;107813;1291;21989;-61
2023/07/11 07:01:51;;;;;;;3.60;1.50;;;;;;;33.70;31.47;100316.95;107793;1290;21992;-61
2023/07/11 07:04:17;;;;;;;5.40;1.80;;;;;;;33.66;32.11;100319.35;107862;1291;21994;-64
2023/07/11 07:06:43;;;;;;;3.50;1.70;;;;;;;33.73;32.11;100317.52;107823;1290;21988;-63
2023/07/11 07:09:09;;;;;;;3.80;1.60;;;;;;;33.91;31.86;100319.96;107890;1290;21992;-60
2023/07/11 07:11:35;;;;;;;5.10;1.60;;;;;;;34.12;30.80;100316.90;107854;1287;21987;-61
2023/07/11 07:14:05;;;;;;;4.60;1.80;;;;;;;34.08;29.98;100319.87;107979;1291;21995;-65
2023/07/11 07:16:32;;;;;;;4.90;1.60;;;;;;;34.00;29.82;100316.02;107896;1287;22023;-65
2023/07/11 07:18:58;;;;;;;3.40;1.40;;;;;;;33.99;29.70;100317.38;107778;1284;21990;-61
2023/07/11 07:21:24;;;;;;;5.50;1.60;;;;;;;34.08;29.79;100316.21;107822;1287;21997;-61
2023/07/11 07:23:49;;;;;;;7.20;2.00;;;;;;;34.22;29.60;100315.70;107859;1291;21991;-61
2023/07/11 07:26:15;;;;;;;3.80;1.80;;;;;;;34.30;29.75;100309.77;107790;1290;22030;-65
2023/07/11 07:28:41;;;;;;;4.20;1.80;;;;;;;34.45;30.18;100310.77;107959;1280;21994;-61
2023/07/11 07:31:08;;;;;;;4.00;1.40;;;;;;;34.54;30.02;100310.65;107789;1277;21994;-65
2023/07/11 07:33:35;;;;;;;5.00;1.60;;;;;;;34.65;30.20;100309.55;107832;1288;21989;-66
2023/07/11 07:36:03;;;;;;;2.90;1.60;;;;;;;34.88;30.41;100305.79;107822;1290;21994;-62
2023/07/11 07:38:29;;;;;;;2.50;1.50;;;;;;;35.11;29.60;100309.02;107825;1290;22184;-66
2023/07/11 07:40:56;;;;;;;3.00;1.40;;;;;;;35.37;29.81;100304.27;107830;1290;22174;-61
2023/07/11 07:43:22;;;;;;;2.40;1.40;;;;;;;35.61;29.19;100302.20;107775;1290;21988;-65
2023/07/11 07:45:51;;;;;;;3.20;1.70;;;;;;;35.73;28.68;100306.33;107762;1290;21991;-65
2023/07/11 07:48:17;;;;;;;5.30;1.40;;;;;;;35.84;27.65;100313.43;107802;1291;22455;-60
2023/07/11 07:50:43;;;;;;;2.70;1.70;;;;;;;35.80;26.76;100308.34;107770;1290;21996;-61
2023/07/11 07:53:08;;;;;;;2.70;1.70;;;;;;;35.65;27.04;100311.88;108020;1290;21996;-61
2023/07/11 07:55:35;;;;;;;2.50;1.70;;;;;;;35.48;27.48;100315.16;107736;1291;21992;-65
2023/07/11 07:58:01;;;;;;;3.70;1.80;;;;;;;35.34;26.65;100315.23;108497;1291;21989;-61
2023/07/11 08:00:27;;;;;;;4.70;1.90;;;;;;;35.25;26.84;100315.16;107794;1288;22031;-64
2023/07/11 08:02:52;;;;;;;2.90;1.50;;;;;;;35.24;27.49;100310.94;107784;1291;21982;-63
2023/07/11 08:05:19;;;;;;;2.90;1.40;;;;;;;35.19;27.45;100313.71;107738;1291;21990;-60
2023/07/11 08:07:45;;;;;;;2.60;1.50;;;;;;;35.39;27.66;100310.86;107863;1291;22073;-60
2023/07/11 08:10:11;;;;;;;3.60;1.70;;;;;;;35.66;27.29;100313.23;107790;1291;22103;-61
2023/07/11 08:12:37;;;;;;;3.30;1.40;;;;;;;35.86;27.36;100309.75;107791;1291;22455;-64
2023/07/11 08:15:06;;;;;;;5.70;1.60;;;;;;;36.07;27.24;100304.99;107742;1290;21987;-61
2023/07/11 08:17:31;;;;;;;3.00;1.30;;;;;;;36.26;27.09;100305.84;107828;1290;21986;-64
2023/07/11 08:19:57;;;;;;;2.10;1.60;;;;;;;36.37;26.88;100302.84;107764;1291;21992;-62
2023/07/11 08:22:23;;;;;;;3.10;1.40;;;;;;;36.39;27.13;100303.91;107808;1285;21992;-60
2023/07/11 08:24:48;;;;;;;3.30;1.80;;;;;;;36.66;26.90;100299.07;107815;1281;21999;-64
2023/07/11 08:27:14;;;;;;;3.50;1.60;;;;;;;36.93;26.71;100296.44;107814;1290;22171;-61
2023/07/11 08:29:44;;;;;;;2.90;1.70;;;;;;;37.11;26.71;100294.81;107843;1290;21999;-64
2023/07/11 08:32:11;;;;;;;2.60;1.50;;;;;;;37.12;26.57;100295.34;107821;1288;21988;-64
2023/07/11 08:34:37;;;;;;;3.70;1.60;;;;;;;37.17;26.95;100289.02;107802;1290;22005;-64
2023/07/11 08:37:03;;;;;;;3.30;1.80;;;;;;;37.11;26.07;100290.61;107770;1290;22283;-61
2023/07/11 08:39:29;;;;;;;4.10;1.50;;;;;;;36.91;26.04;100289.58;107736;1290;22424;-64
2023/07/11 08:41:55;;;;;;;3.50;1.60;;;;;;;36.76;25.93;100296.17;107753;1290;21999;-65
2023/07/11 08:44:39;;;;;;;11.00;2.00;;;;;;;36.69;25.82;100295.61;107845;1286;21993;-60
2023/07/11 08:47:31;;;;;;;4.20;1.90;;;;;;;36.81;25.98;100292.88;107856;1291;21994;-60
2023/07/11 08:50:11;;;;;;;3.90;1.60;;;;;;;36.93;25.99;100289.59;107780;1286;22005;-60
2023/07/11 08:52:36;;;;;;;2.80;1.30;;;;;;;37.01;25.57;100290.01;108865;1284;22006;-60
2023/07/11 08:55:04;;;;;;;2.80;1.50;;;;;;;36.94;24.89;100298.55;107748;1291;21990;-65
2023/07/11 08:57:31;;;;;;;3.40;1.40;;;;;;;36.81;25.09;100300.86;107849;1287;21980;-61
2023/07/11 09:00:09;;;;;;;4.50;1.90;;;;;;;36.78;25.10;100295.85;107881;1286;21999;-60
2023/07/11 09:02:54;;;;;;;3.40;1.50;;;;;;;36.75;24.97;100297.24;107796;1291;21992;-64
2023/07/11 09:05:26;;;;;;;3.00;1.40;;;;;;;36.79;25.30;100293.41;107790;1291;21998;-60
2023/07/11 09:07:53;;;;;;;4.40;1.60;;;;;;;36.97;25.47;100287.58;107778;1291;21989;-64
2023/07/11 09:10:19;;;;;;;3.00;1.30;;;;;;;37.14;25.04;100292.52;107786;1284;21990;-60
2023/07/11 09:12:53;;;;;;;3.00;1.40;;;;;;;37.25;24.33;100293.94;107789;1290;22000;-65
2023/07/11 09:15:45;;;;;;;2.40;1.30;;;;;;;37.39;24.36;100287.43;107792;1291;23066;-61
2023/07/11 09:18:27;;;;;;;2.80;1.50;;;;;;;37.63;24.96;100282.71;107717;1291;21986;-60
2023/07/11 09:21:22;;;;;;;6.10;1.50;;;;;;;37.91;24.50;100281.48;107885;1290;22003;-64
2023/07/11 09:24:01;;;;;;;3.30;1.40;;;;;;;38.21;23.97;100276.45;107743;1290;21995;-63
2023/07/11 09:26:28;;;;;;;2.00;1.20;;;;;;;38.44;24.17;100277.16;107810;1287;21987;-60
2023/07/11 09:29:00;;;;;;;3.20;1.20;;;;;;;38.48;23.35;100274.23;107870;1287;21989;-60
2023/07/11 09:31:25;;;;;;;5.00;1.50;;;;;;;38.30;22.59;100275.14;107835;1290;21989;-60
2023/07/11 09:33:52;;;;;;;2.70;1.30;;;;;;;37.94;22.57;100274.61;107801;1290;21994;-62
2023/07/11 09:36:21;;;;;;;4.00;1.40;;;;;;;37.56;22.74;100276.40;107880;1290;21994;-65
2023/07/11 09:39:04;;;;;;;3.00;1.70;;;;;;;37.18;22.92;100273.83;107885;1290;21991;-65
2023/07/11 09:41:43;;;;;;;2.30;1.20;;;;;;;37.05;23.40;100269.91;107855;1290;24022;-61
2023/07/11 09:44:10;;;;;;;3.70;1.60;;;;;;;37.04;23.26;100270.08;107902;1290;22196;-64
2023/07/11 09:46:36;;;;;;;3.60;1.40;;;;;;;37.20;23.30;100264.01;107848;1291;22049;-65
2023/07/11 09:49:01;;;;;;;4.90;1.30;;;;;;;37.51;23.66;100259.52;107736;1290;21997;-60
2023/07/11 09:51:30;;;;;;;3.40;1.40;;;;;;;37.66;22.75;100259.92;107758;1291;22653;-62
2023/07/11 09:53:55;;;;;;;4.60;1.40;;;;;;;37.52;22.39;100257.28;107789;1291;22042;-65
2023/07/11 09:56:22;;;;;;;3.10;1.10;;;;;;;37.33;23.06;100258.88;107735;1279;21991;-62
2023/07/11 09:58:50;;;;;;;4.10;1.50;;;;;;;37.19;23.53;100263.70;107807;1291;22012;-60
2023/07/11 10:01:32;;;;;;;3.30;1.30;;;;;;;37.16;23.72;100266.89;107759;1291;22000;-60
2023/07/11 10:03:59;;;;;;;3.20;1.80;;;;;;;37.06;23.39;100267.63;107791;1288;22013;-60
2023/07/11 10:06:52;;;;;;;3.00;1.70;;;;;;;36.86;23.41;100267.25;107818;1291;21992;-60
2023/07/11 10:09:36;;;;;;;3.00;1.50;;;;;;;36.81;23.88;100263.27;107781;1291;21989;-60
2023/07/11 10:12:23;;;;;;;5.80;1.30;;;;;;;36.89;23.64;100262.98;107799;1283;23742;-61
2023/07/11 10:14:56;;;;;;;2.30;1.40;;;;;;;37.16;22.98;100263.76;107870;1290;21997;-65
2023/07/11 10:17:28;;;;;;;4.20;1.40;;;;;;;37.39;22.66;100260.73;107852;1280;23062;-64
2023/07/11 10:19:59;;;;;;;2.30;1.30;;;;;;;37.54;23.48;100263.14;107839;1281;21988;-65
2023/07/11 10:22:27;;;;;;;9.90;1.90;;;;;;;37.68;23.80;100263.98;107830;1290;21997;-59
2023/07/11 10:25:11;;;;;;;3.90;1.50;;;;;;;37.98;23.42;100252.36;107817;1290;21992;-66
2023/07/11 10:27:37;;;;;;;7.40;1.60;;;;;;;38.51;23.51;100251.25;107856;1291;22004;-60
2023/07/11 10:30:04;;;;;;;6.50;1.70;;;;;;;38.90;22.34;100252.19;107966;1290;23738;-60
2023/07/11 10:32:40;;;;;;;4.70;1.60;;;;;;;39.10;22.63;100250.10;107863;1291;22029;-66
2023/07/11 10:35:10;;;;;;;4.00;1.60;;;;;;;39.31;21.64;100248.75;107835;1288;21980;-61
2023/07/11 10:37:39;;;;;;;;;;;;;;;39.35;21.26;100252.98;107931;1290;21981;-60
2023/07/11 10:40:10;;;;;;;4.00;1.40;;;;;;;39.39;21.68;100252.58;107892;1290;22166;-65
2023/07/11 10:43:14;;;;;;;4.70;1.40;;;;;;;39.45;21.32;100255.70;107750;1290;22455;-66
2023/07/11 10:45:43;;;;;;;5.80;1.70;;;;;;;39.57;21.05;100254.36;107893;1288;21996;-61
2023/07/11 10:48:34;;;;;;;6.30;1.70;;;;;;;39.77;21.33;100256.94;107846;1291;22455;-60
2023/07/11 10:51:19;;;;;;;2.40;1.50;;;;;;;39.86;20.59;100259.42;107759;1288;22114;-66
2023/07/11 10:54:11;;;;;;;2.40;1.60;;;;;;;39.69;20.59;100256.39;107801;1287;21995;-60
2023/07/11 10:56:40;;;;;;;1.80;1.20;;;;;;;39.74;21.24;100252.02;107731;1290;22000;-60
2023/07/11 10:59:09;;;;;;;11.50;1.70;;;;;;;39.94;21.15;100250.54;107738;1283;23052;-59
2023/07/11 11:01:36;;;;;;;;;;;;;;;40.03;20.63;100247.80;107763;1290;23631;-60
2023/07/11 11:04:10;;;;;;;3.60;1.50;;;;;;;40.13;21.38;100239.11;107759;1289;21989;-66
2023/07/11 11:07:11;;;;;;;2.20;1.40;;;;;;;40.32;21.61;100241.27;107779;1279;21980;-60
2023/07/11 11:09:43;;;;;;;2.00;1.20;;;;;;;40.81;21.84;100241.42;107524;1290;21992;-66
2023/07/11 11:12:21;;;;;;;2.90;1.30;;;;;;;41.22;20.92;100244.33;107781;1290;22101;-60
2023/07/11 11:14:53;;;;;;;5.00;1.70;;;;;;;41.12;19.94;100245.09;107703;1290;22035;-59
2023/07/11 11:17:26;;;;;;;3.20;1.30;;;;;;;40.81;20.22;100251.77;107780;1287;23071;-60
2023/07/11 11:20:07;;;;;;;7.80;1.70;;;;;;;40.61;19.96;100251.33;107740;1281;22018;-60
2023/07/11 11:22:57;;;;;;;10.40;1.70;;;;;;;40.33;20.01;100249.16;107771;1286;21992;-66
2023/07/11 11:25:29;;;;;;;5.10;1.70;;;;;;;40.01;20.14;100245.39;107910;1290;21990;-59
2023/07/11 11:28:09;;;;;;;3.10;1.40;;;;;;;39.81;20.34;100245.61;107889;1290;22005;-59
2023/07/11 11:30:55;;;;;;;2.50;1.10;;;;;;;39.76;20.66;100244.30;107845;1287;22123;-66
2023/07/11 11:33:41;;;;;;;2.80;1.40;;;;;;;39.82;20.62;100239.05;107797;1287;23052;-66
2023/07/11 11:36:54;;;;;;;5.50;1.70;;;;;;;40.03;20.91;100232.66;109847;1286;22037;-60
2023/07/11 11:39:26;;;;;;;3.90;1.30;;;;;;;40.12;19.78;100229.69;107229;1298;22014;-66
2023/07/11 11:41:59;;;;;;;3.60;1.30;;;;;;;39.97;20.13;100223.24;107906;1290;22034;-61
2023/07/11 11:44:43;;;;;;;4.30;1.70;;;;;;;39.70;19.74;100219.41;107858;1280;22045;-65
2023/07/11 11:47:09;;;;;;;3.60;1.60;;;;;;;39.14;19.62;100222.81;107855;1287;21990;-66
2023/07/11 11:49:35;;;;;;;3.00;1.70;;;;;;;38.49;20.07;100217.29;108007;1290;21974;-61
2023/07/11 11:52:01;;;;;;;2.40;1.40;;;;;;;38.13;20.40;100213.94;108035;1290;22018;-67
2023/07/11 11:54:26;;;;;;;6.40;1.90;;;;;;;38.03;20.33;100219.48;107831;1290;21994;-66
2023/07/11 11:56:55;;;;;;;3.80;1.80;;;;;;;37.92;20.57;100208.46;107799;1290;21959;-66
2023/07/11 11:59:30;;;;;;;3.30;1.70;;;;;;;37.90;20.84;100206.15;107776;1290;23075;-60
2023/07/11 12:02:25;;;;;;;3.30;1.30;;;;;;;38.02;21.01;100202.27;107843;1290;21981;-66
2023/07/11 12:05:21;;;;;;;3.00;1.20;;;;;;;38.20;21.02;100202.17;107831;1289;21998;-66
2023/07/11 12:08:16;;;;;;;6.60;1.40;;;;;;;38.32;20.79;100197.86;107819;1290;23050;-60
2023/07/11 12:11:07;;;;;;;5.50;1.70;;;;;;;38.32;21.05;100191.09;107870;1290;21997;-67
2023/07/11 12:13:37;;;;;;;7.00;2.10;;;;;;;38.26;20.83;100188.96;107772;1290;22296;-66
2023/07/11 12:16:25;;;;;;;5.80;1.90;;;;;;;38.23;20.83;100185.36;107781;1290;22030;-67
2023/07/11 12:18:52;;;;;;;14.10;2.00;;;;;;;38.13;20.77;100182.25;107808;1290;22021;-67
2023/07/11 12:21:40;;;;;;;6.80;1.90;;;;;;;38.11;21.34;100181.85;107801;1291;21995;-67
2023/07/11 12:24:26;;;;;;;5.00;1.50;;;;;;;38.18;21.16;100177.73;107804;1290;21994;-68
2023/07/11 12:26:52;;;;;;;5.00;2.00;;;;;;;38.37;21.17;100173.44;107807;1290;21999;-67
2023/07/11 12:29:37;;;;;;;3.70;1.40;;;;;;;38.53;21.26;100167.92;107854;1290;22027;-62
2023/07/11 12:32:32;;;;;;;4.90;1.50;;;;;;;38.63;21.03;100171.83;107997;1287;22028;-67
2023/07/11 12:35:10;;;;;;;4.10;1.60;;;;;;;38.61;20.33;100175.46;108101;1290;22772;-67
2023/07/11 12:38:01;;;;;;;4.10;1.50;;;;;;;38.65;20.24;100169.66;108122;1290;22004;-67
2023/07/11 12:40:46;;;;;;;5.80;1.60;;;;;;;38.75;20.65;100172.30;108138;1290;21991;-67
2023/07/11 12:43:20;;;;;;;6.80;1.60;;;;;;;38.91;20.38;100168.91;107845;1290;23118;-67
2023/07/11 12:46:34;;;;;;;4.50;1.30;;;;;;;38.90;20.54;100168.58;108144;1290;21967;-64
2023/07/11 12:49:03;;;;;;;13.50;2.00;;;;;;;38.81;20.20;100168.63;107917;1290;23664;-62
2023/07/11 12:51:33;;;;;;;190.50;17.10;;;;;;;38.66;20.38;100165.14;107993;1290;21985;-65
2023/07/11 12:54:01;;;;;;;;;;;;;;;38.54;20.35;100166.39;108051;1289;21974;-61
2023/07/11 12:56:28;;;;;;;3.40;1.50;;;;;;;38.43;20.29;100166.03;107954;1290;21994;-61
2023/07/11 12:58:53;;;;;;;3.60;1.30;;;;;;;38.28;20.21;100163.39;108035;1283;22030;-61
2023/07/11 13:01:20;;;;;;;3.60;1.30;;;;;;;38.13;20.33;100162.13;107998;1289;21999;-60
2023/07/11 13:03:46;;;;;;;3.30;1.40;;;;;;;38.03;20.63;100163.61;107990;1281;21989;-64
2023/07/11 13:06:20;;;;;;;2.00;1.40;;;;;;;38.01;20.90;100161.70;108194;1283;22460;-65
2023/07/11 13:08:47;;;;;;;3.80;1.40;;;;;;;38.11;21.17;100162.00;107906;1289;22202;-61
2023/07/11 13:11:23;;;;;;;4.20;1.60;;;;;;;38.12;20.87;100165.24;107961;1286;22102;-64
2023/07/11 13:13:50;;;;;;;2.70;1.40;;;;;;;38.00;20.30;100165.45;108098;1286;22000;-62
2023/07/11 13:16:16;;;;;;;8.10;2.20;;;;;;;37.91;20.64;100161.69;107875;1289;21983;-63
2023/07/11 13:18:43;;;;;;;6.40;1.40;;;;;;;37.84;20.57;100161.59;107781;1289;21989;-61
2023/07/11 13:21:09;;;;;;;5.10;1.90;;;;;;;37.68;20.72;100160.55;107897;1287;21998;-61
2023/07/11 13:23:36;;;;;;;6.90;1.50;;;;;;;37.50;20.65;100166.95;107884;1289;22001;-60
2023/07/11 13:26:27;;;;;;;4.30;1.20;;;;;;;37.22;20.77;100168.71;107914;1281;22724;-60
2023/07/11 13:29:16;;;;;;;2.30;1.30;;;;;;;37.01;21.07;100168.44;107955;1289;21992;-61
2023/07/11 13:31:42;;;;;;;3.70;1.70;;;;;;;36.89;21.32;100171.23;107944;1289;22019;-64
2023/07/11 13:34:19;;;;;;;3.20;1.70;;;;;;;36.72;21.18;100178.14;107791;1289;21990;-60
2023/07/11 13:36:46;;;;;;;2.90;1.70;;;;;;;36.53;21.38;100181.79;108059;1286;22043;-64
2023/07/11 13:39:14;;;;;;;6.80;2.00;;;;;;;36.34;21.34;100187.63;108026;1289;22000;-60